sensor_id;sensor_type;location;lat;lon;timestamp;pressure;altitude;pressure_sealevel;temperature;humidity
13068;BME280;6600;51.362;6.686;2024-03-17T00:00:14;101982.03;;;8.25;91.12
13068;BME280;6600;51.362;6.686;2024-03-17T00:02:40;101974.38;;;8.22;91.86
13068;BME280;6600;51.362;6.686;2024-03-17T00:05:07;101966.38;;;8.22;92.21
13068;BME280;6600;51.362;6.686;2024-03-17T00:07:32;101966.72;;;8.19;92.03
13068;BME280;6600;51.362;6.686;2024-03-17T00:09:57;101962.06;;;8.13;92.80
13068;BME280;6600;51.362;6.686;2024-03-17T00:12:23;101961.03;;;8.14;92.63
13068;BME280;6600;51.362;6.686;2024-03-17T00:14:48;101958.53;;;8.12;93.02
13068;BME280;6600;51.362;6.686;2024-03-17T00:17:13;101957.06;;;8.10;93.27
13068;BME280;6600;51.362;6.686;2024-03-17T00:19:40;101950.53;;;8.12;92.87
13068;BME280;6600;51.362;6.686;2024-03-17T00:22:06;101950.03;;;8.09;92.81
13068;BME280;6600;51.362;6.686;2024-03-17T00:24:33;101961.38;;;8.19;92.47
13068;BME280;6600;51.362;6.686;2024-03-17T00:27:01;101944.16;;;8.22;92.14
13068;BME280;6600;51.362;6.686;2024-03-17T00:29:26;101940.00;;;8.19;91.66
13068;BME280;6600;51.362;6.686;2024-03-17T00:31:53;101939.66;;;8.22;91.59
13068;BME280;6600;51.362;6.686;2024-03-17T00:34:19;101928.00;;;8.15;91.62
13068;BME280;6600;51.362;6.686;2024-03-17T00:36:45;101936.34;;;8.20;91.36
13068;BME280;6600;51.362;6.686;2024-03-17T00:39:11;101941.34;;;8.23;91.64
13068;BME280;6600;51.362;6.686;2024-03-17T00:41:36;101933.34;;;8.23;91.24
13068;BME280;6600;51.362;6.686;2024-03-17T00:44:01;101932.00;;;8.11;91.13
13068;BME280;6600;51.362;6.686;2024-03-17T00:46:28;101935.31;;;8.21;90.87
13068;BME280;6600;51.362;6.686;2024-03-17T00:48:53;101931.31;;;8.17;90.71
13068;BME280;6600;51.362;6.686;2024-03-17T00:51:19;101929.66;;;8.16;90.73
13068;BME280;6600;51.362;6.686;2024-03-17T00:53:44;101928.84;;;8.16;90.71
13068;BME280;6600;51.362;6.686;2024-03-17T00:56:10;101927.31;;;8.21;90.22
13068;BME280;6600;51.362;6.686;2024-03-17T00:58:35;101923.00;;;8.28;90.01
13068;BME280;6600;51.362;6.686;2024-03-17T01:01:01;101916.97;;;8.26;90.08
13068;BME280;6600;51.362;6.686;2024-03-17T01:03:27;101922.00;;;8.29;90.12
13068;BME280;6600;51.362;6.686;2024-03-17T01:05:53;101921.00;;;8.30;90.00
13068;BME280;6600;51.362;6.686;2024-03-17T01:08:19;101922.63;;;8.31;89.87
13068;BME280;6600;51.362;6.686;2024-03-17T01:10:45;101927.97;;;8.31;89.79
13068;BME280;6600;51.362;6.686;2024-03-17T01:13:15;101932.31;;;8.24;89.98
13068;BME280;6600;51.362;6.686;2024-03-17T01:15:40;101925.81;;;8.27;89.72
13068;BME280;6600;51.362;6.686;2024-03-17T01:18:06;101924.63;;;8.21;89.82
13068;BME280;6600;51.362;6.686;2024-03-17T01:20:32;101920.47;;;8.27;89.78
13068;BME280;6600;51.362;6.686;2024-03-17T01:22:58;101920.31;;;8.20;90.12
13068;BME280;6600;51.362;6.686;2024-03-17T01:25:24;101914.16;;;8.20;90.02
13068;BME280;6600;51.362;6.686;2024-03-17T01:27:51;101916.31;;;8.16;90.36
13068;BME280;6600;51.362;6.686;2024-03-17T01:30:17;101912.16;;;8.13;90.24
13068;BME280;6600;51.362;6.686;2024-03-17T01:32:44;101909.31;;;8.07;90.44
13068;BME280;6600;51.362;6.686;2024-03-17T01:35:09;101909.66;;;8.04;90.18
13068;BME280;6600;51.362;6.686;2024-03-17T01:37:35;101901.84;;;8.02;90.53
13068;BME280;6600;51.362;6.686;2024-03-17T01:40:00;101905.00;;;7.98;90.30
13068;BME280;6600;51.362;6.686;2024-03-17T01:42:25;101900.16;;;8.01;90.33
13068;BME280;6600;51.362;6.686;2024-03-17T01:44:51;101904.66;;;8.01;90.47
13068;BME280;6600;51.362;6.686;2024-03-17T01:47:17;101892.31;;;8.00;90.68
13068;BME280;6600;51.362;6.686;2024-03-17T01:49:47;101892.31;;;8.00;90.53
13068;BME280;6600;51.362;6.686;2024-03-17T01:52:14;101883.50;;;7.91;91.39
13068;BME280;6600;51.362;6.686;2024-03-17T01:54:40;101888.00;;;7.91;91.31
13068;BME280;6600;51.362;6.686;2024-03-17T01:57:07;101893.69;;;7.88;91.53
13068;BME280;6600;51.362;6.686;2024-03-17T01:59:32;101891.00;;;7.80;91.46
13068;BME280;6600;51.362;6.686;2024-03-17T02:01:58;101885.03;;;7.86;91.52
13068;BME280;6600;51.362;6.686;2024-03-17T02:04:24;101881.69;;;7.84;91.99
13068;BME280;6600;51.362;6.686;2024-03-17T02:06:50;101889.03;;;7.82;91.61
13068;BME280;6600;51.362;6.686;2024-03-17T02:09:15;101879.69;;;7.70;92.21
13068;BME280;6600;51.362;6.686;2024-03-17T02:11:40;101874.00;;;7.73;91.77
13068;BME280;6600;51.362;6.686;2024-03-17T02:14:07;101878.69;;;7.79;91.88
13068;BME280;6600;51.362;6.686;2024-03-17T02:16:33;101876.69;;;7.73;91.92
13068;BME280;6600;51.362;6.686;2024-03-17T02:18:59;101877.03;;;7.78;92.14
13068;BME280;6600;51.362;6.686;2024-03-17T02:21:25;101879.19;;;7.82;91.61
13068;BME280;6600;51.362;6.686;2024-03-17T02:23:54;101876.38;;;7.68;91.69
13068;BME280;6600;51.362;6.686;2024-03-17T02:26:20;101876.88;;;7.55;92.13
13068;BME280;6600;51.362;6.686;2024-03-17T02:28:46;101876.03;;;7.62;92.04
13068;BME280;6600;51.362;6.686;2024-03-17T02:31:14;101866.03;;;7.65;91.96
13068;BME280;6600;51.362;6.686;2024-03-17T02:33:40;101861.34;;;7.58;92.32
13068;BME280;6600;51.362;6.686;2024-03-17T02:36:06;101854.38;;;7.57;92.30
13068;BME280;6600;51.362;6.686;2024-03-17T02:38:40;101857.34;;;7.62;92.38
13068;BME280;6600;51.362;6.686;2024-03-17T02:41:26;101863.88;;;7.60;92.75
13068;BME280;6600;51.362;6.686;2024-03-17T02:43:51;101855.22;;;7.58;92.05
13068;BME280;6600;51.362;6.686;2024-03-17T02:46:18;101844.03;;;7.62;92.64
13068;BME280;6600;51.362;6.686;2024-03-17T02:48:52;101851.38;;;7.52;93.16
13068;BME280;6600;51.362;6.686;2024-03-17T02:51:20;101850.88;;;7.65;92.80
13068;BME280;6600;51.362;6.686;2024-03-17T02:53:47;101846.34;;;7.66;92.51
13068;BME280;6600;51.362;6.686;2024-03-17T02:56:13;101849.19;;;7.64;92.50
13068;BME280;6600;51.362;6.686;2024-03-17T02:58:43;101854.38;;;7.57;92.79
13068;BME280;6600;51.362;6.686;2024-03-17T03:01:09;101855.03;;;7.59;92.67
13068;BME280;6600;51.362;6.686;2024-03-17T03:03:35;101857.84;;;7.66;92.50
13068;BME280;6600;51.362;6.686;2024-03-17T03:06:01;101858.53;;;7.60;92.35
13068;BME280;6600;51.362;6.686;2024-03-17T03:08:32;101851.38;;;7.60;92.52
13068;BME280;6600;51.362;6.686;2024-03-17T03:10:57;101850.22;;;7.55;92.63
13068;BME280;6600;51.362;6.686;2024-03-17T03:13:22;101861.38;;;7.42;93.41
13068;BME280;6600;51.362;6.686;2024-03-17T03:15:48;101857.03;;;7.49;93.88
13068;BME280;6600;51.362;6.686;2024-03-17T03:18:14;101852.06;;;7.54;94.07
13068;BME280;6600;51.362;6.686;2024-03-17T03:20:40;101852.38;;;7.51;93.74
13068;BME280;6600;51.362;6.686;2024-03-17T03:23:06;101855.03;;;7.43;93.99
13068;BME280;6600;51.362;6.686;2024-03-17T03:25:31;101848.69;;;7.52;93.64
13068;BME280;6600;51.362;6.686;2024-03-17T03:27:56;101849.03;;;7.49;93.77
13068;BME280;6600;51.362;6.686;2024-03-17T03:30:23;101850.72;;;7.42;93.97
13068;BME280;6600;51.362;6.686;2024-03-17T03:32:49;101849.38;;;7.38;94.70
13068;BME280;6600;51.362;6.686;2024-03-17T03:35:14;101855.69;;;7.45;94.35
13068;BME280;6600;51.362;6.686;2024-03-17T03:37:40;101856.88;;;7.43;94.48
13068;BME280;6600;51.362;6.686;2024-03-17T03:40:06;101860.69;;;7.48;94.81
13068;BME280;6600;51.362;6.686;2024-03-17T03:42:42;101857.03;;;7.49;95.17
13068;BME280;6600;51.362;6.686;2024-03-17T03:45:08;101856.88;;;7.51;94.79
13068;BME280;6600;51.362;6.686;2024-03-17T03:47:34;101847.56;;;7.47;94.89
13068;BME280;6600;51.362;6.686;2024-03-17T03:49:59;101844.88;;;7.47;94.95
13068;BME280;6600;51.362;6.686;2024-03-17T03:52:24;101844.69;;;7.48;94.72
13068;BME280;6600;51.362;6.686;2024-03-17T03:54:51;101852.69;;;7.56;95.07
13068;BME280;6600;51.362;6.686;2024-03-17T03:57:17;101850.38;;;7.45;94.92
13068;BME280;6600;51.362;6.686;2024-03-17T03:59:42;101855.38;;;7.48;94.92
13068;BME280;6600;51.362;6.686;2024-03-17T04:02:08;101860.69;;;7.48;94.89
13068;BME280;6600;51.362;6.686;2024-03-17T04:04:34;101856.53;;;7.46;95.24
13068;BME280;6600;51.362;6.686;2024-03-17T04:07:00;101859.69;;;7.49;95.11
13068;BME280;6600;51.362;6.686;2024-03-17T04:09:25;101853.03;;;7.45;95.07
13068;BME280;6600;51.362;6.686;2024-03-17T04:11:50;101856.03;;;7.50;95.06
13068;BME280;6600;51.362;6.686;2024-03-17T04:14:16;101847.72;;;7.53;95.19
13068;BME280;6600;51.362;6.686;2024-03-17T04:16:41;101847.69;;;7.45;95.18
13068;BME280;6600;51.362;6.686;2024-03-17T04:19:08;101837.88;;;7.46;95.16
13068;BME280;6600;51.362;6.686;2024-03-17T04:21:34;101842.06;;;7.40;95.95
13068;BME280;6600;51.362;6.686;2024-03-17T04:23:59;101832.03;;;7.42;96.14
13068;BME280;6600;51.362;6.686;2024-03-17T04:26:24;101822.72;;;7.38;96.02
13068;BME280;6600;51.362;6.686;2024-03-17T04:28:50;101830.03;;;7.52;96.01
13068;BME280;6600;51.362;6.686;2024-03-17T04:31:15;101821.56;;;7.41;96.52
13068;BME280;6600;51.362;6.686;2024-03-17T04:33:40;101824.34;;;7.55;96.25
13068;BME280;6600;51.362;6.686;2024-03-17T04:36:06;101818.19;;;7.63;96.03
13068;BME280;6600;51.362;6.686;2024-03-17T04:38:33;101821.53;;;7.65;95.97
13068;BME280;6600;51.362;6.686;2024-03-17T04:40:59;101817.69;;;7.68;95.66
13068;BME280;6600;51.362;6.686;2024-03-17T04:43:30;101819.00;;;7.72;95.64
13068;BME280;6600;51.362;6.686;2024-03-17T04:46:03;101817.00;;;7.74;95.63
13068;BME280;6600;51.362;6.686;2024-03-17T04:48:31;101807.34;;;7.65;95.47
13068;BME280;6600;51.362;6.686;2024-03-17T04:50:57;101803.34;;;7.69;95.65
13068;BME280;6600;51.362;6.686;2024-03-17T04:53:22;101803.84;;;7.64;95.73
13068;BME280;6600;51.362;6.686;2024-03-17T04:55:47;101800.66;;;7.77;95.38
13068;BME280;6600;51.362;6.686;2024-03-17T04:58:13;101806.66;;;7.71;95.50
13068;BME280;6600;51.362;6.686;2024-03-17T05:00:38;101792.69;;;7.69;95.67
13068;BME280;6600;51.362;6.686;2024-03-17T05:03:03;101799.94;;;7.83;95.24
13068;BME280;6600;51.362;6.686;2024-03-17T05:05:29;101802.31;;;7.78;95.27
13068;BME280;6600;51.362;6.686;2024-03-17T05:07:54;101803.66;;;7.82;95.02
13068;BME280;6600;51.362;6.686;2024-03-17T05:10:20;101805.28;;;7.83;94.92
13068;BME280;6600;51.362;6.686;2024-03-17T05:12:45;101806.66;;;7.79;95.00
13068;BME280;6600;51.362;6.686;2024-03-17T05:15:10;101804.66;;;7.81;95.19
13068;BME280;6600;51.362;6.686;2024-03-17T05:17:36;101802.84;;;7.65;95.39
13068;BME280;6600;51.362;6.686;2024-03-17T05:20:01;101799.81;;;7.76;95.51
13068;BME280;6600;51.362;6.686;2024-03-17T05:22:27;101792.28;;;7.88;94.87
13068;BME280;6600;51.362;6.686;2024-03-17T05:24:52;101797.94;;;7.93;94.73
13068;BME280;6600;51.362;6.686;2024-03-17T05:27:19;101794.94;;;7.88;94.67
13068;BME280;6600;51.362;6.686;2024-03-17T05:29:44;101792.75;;;7.99;94.49
13068;BME280;6600;51.362;6.686;2024-03-17T05:32:09;101794.31;;;7.86;94.49
13068;BME280;6600;51.362;6.686;2024-03-17T05:34:35;101783.44;;;7.95;94.44
13068;BME280;6600;51.362;6.686;2024-03-17T05:37:00;101797.47;;;7.89;94.42
13068;BME280;6600;51.362;6.686;2024-03-17T05:39:27;101798.13;;;7.91;94.60
13068;BME280;6600;51.362;6.686;2024-03-17T05:41:52;101803.94;;;7.95;94.58
13068;BME280;6600;51.362;6.686;2024-03-17T05:44:18;101803.09;;;7.94;94.43
13068;BME280;6600;51.362;6.686;2024-03-17T05:46:43;101809.28;;;7.95;94.70
13068;BME280;6600;51.362;6.686;2024-03-17T05:49:08;101802.97;;;7.88;94.70
13068;BME280;6600;51.362;6.686;2024-03-17T05:51:34;101805.63;;;7.88;94.43
13068;BME280;6600;51.362;6.686;2024-03-17T05:53:59;101808.94;;;7.90;94.76
13068;BME280;6600;51.362;6.686;2024-03-17T05:56:25;101804.91;;;8.02;94.17
13068;BME280;6600;51.362;6.686;2024-03-17T05:58:50;101811.94;;;8.03;94.27
13068;BME280;6600;51.362;6.686;2024-03-17T06:01:15;101805.88;;;8.09;94.02
13068;BME280;6600;51.362;6.686;2024-03-17T06:03:40;101810.03;;;8.11;93.92
13068;BME280;6600;51.362;6.686;2024-03-17T06:06:06;101801.53;;;8.16;93.72
13068;BME280;6600;51.362;6.686;2024-03-17T06:08:36;101801.31;;;8.26;93.57
13068;BME280;6600;51.362;6.686;2024-03-17T06:11:01;101794.81;;;8.28;93.23
13068;BME280;6600;51.362;6.686;2024-03-17T06:13:27;101801.13;;;8.35;93.06
13068;BME280;6600;51.362;6.686;2024-03-17T06:15:53;101798.78;;;8.40;92.99
13068;BME280;6600;51.362;6.686;2024-03-17T06:18:19;101794.16;;;8.34;92.68
13068;BME280;6600;51.362;6.686;2024-03-17T06:20:46;101795.06;;;8.41;92.43
13068;BME280;6600;51.362;6.686;2024-03-17T06:23:13;101792.97;;;8.59;91.96
13068;BME280;6600;51.362;6.686;2024-03-17T06:25:46;101800.88;;;8.76;92.33
13068;BME280;6600;51.362;6.686;2024-03-17T06:28:13;101800.84;;;8.84;91.97
13068;BME280;6600;51.362;6.686;2024-03-17T06:30:42;101792.06;;;8.98;91.11
13068;BME280;6600;51.362;6.686;2024-03-17T06:33:17;101789.97;;;9.08;90.96
13068;BME280;6600;51.362;6.686;2024-03-17T06:35:45;101793.22;;;9.18;90.61
13068;BME280;6600;51.362;6.686;2024-03-17T06:38:12;101796.31;;;9.30;90.21
13068;BME280;6600;51.362;6.686;2024-03-17T06:40:37;101778.88;;;9.48;89.54
13068;BME280;6600;51.362;6.686;2024-03-17T06:43:03;101774.22;;;10.59;86.58
13068;BME280;6600;51.362;6.686;2024-03-17T06:45:29;101772.22;;;11.59;81.68
13068;BME280;6600;51.362;6.686;2024-03-17T06:47:54;101771.78;;;11.07;81.39
13068;BME280;6600;51.362;6.686;2024-03-17T06:50:20;101772.25;;;11.94;80.19
13068;BME280;6600;51.362;6.686;2024-03-17T06:52:46;101767.19;;;14.35;73.67
13068;BME280;6600;51.362;6.686;2024-03-17T06:55:11;101759.78;;;15.49;67.33
13068;BME280;6600;51.362;6.686;2024-03-17T06:57:37;101764.84;;;14.83;66.68
13068;BME280;6600;51.362;6.686;2024-03-17T07:00:03;101769.50;;;13.41;70.39
13068;BME280;6600;51.362;6.686;2024-03-17T07:02:38;101762.38;;;13.80;71.48
13068;BME280;6600;51.362;6.686;2024-03-17T07:05:03;101765.34;;;15.73;65.98
13068;BME280;6600;51.362;6.686;2024-03-17T07:07:29;101772.03;;;16.73;61.44
13068;BME280;6600;51.362;6.686;2024-03-17T07:09:54;101782.38;;;15.30;64.27
13068;BME280;6600;51.362;6.686;2024-03-17T07:12:19;101786.44;;;13.81;68.35
13068;BME280;6600;51.362;6.686;2024-03-17T07:14:45;101789.72;;;12.78;72.65
13068;BME280;6600;51.362;6.686;2024-03-17T07:17:10;101781.75;;;12.37;73.23
13068;BME280;6600;51.362;6.686;2024-03-17T07:19:35;101784.81;;;11.87;75.67
13068;BME280;6600;51.362;6.686;2024-03-17T07:22:01;101777.53;;;11.53;76.71
13068;BME280;6600;51.362;6.686;2024-03-17T07:24:27;101780.75;;;10.93;79.17
13068;BME280;6600;51.362;6.686;2024-03-17T07:26:52;101776.41;;;10.71;80.79
13068;BME280;6600;51.362;6.686;2024-03-17T07:29:18;101784.94;;;10.59;80.83
13068;BME280;6600;51.362;6.686;2024-03-17T07:31:44;101773.63;;;10.43;82.23
13068;BME280;6600;51.362;6.686;2024-03-17T07:34:09;101779.38;;;11.03;82.31
13068;BME280;6600;51.362;6.686;2024-03-17T07:36:35;101781.47;;;11.29;80.74
13068;BME280;6600;51.362;6.686;2024-03-17T07:39:01;101776.75;;;11.59;79.20
13068;BME280;6600;51.362;6.686;2024-03-17T07:41:27;101775.16;;;11.64;78.54
13068;BME280;6600;51.362;6.686;2024-03-17T07:43:52;101778.81;;;11.57;79.24
13068;BME280;6600;51.362;6.686;2024-03-17T07:46:17;101783.72;;;11.53;78.58
13068;BME280;6600;51.362;6.686;2024-03-17T07:48:44;101777.88;;;11.43;77.37
13068;BME280;6600;51.362;6.686;2024-03-17T07:51:11;101790.72;;;11.48;78.10
13068;BME280;6600;51.362;6.686;2024-03-17T07:53:38;101786.13;;;11.42;78.77
13068;BME280;6600;51.362;6.686;2024-03-17T07:56:07;101787.44;;;11.03;78.75
13068;BME280;6600;51.362;6.686;2024-03-17T07:58:36;101783.94;;;10.60;79.81
13068;BME280;6600;51.362;6.686;2024-03-17T08:01:08;101786.34;;;10.77;80.96
13068;BME280;6600;51.362;6.686;2024-03-17T08:03:36;101783.19;;;10.88;80.37
13068;BME280;6600;51.362;6.686;2024-03-17T08:06:03;101784.69;;;10.97;80.58
13068;BME280;6600;51.362;6.686;2024-03-17T08:08:30;101770.53;;;11.03;80.54
13068;BME280;6600;51.362;6.686;2024-03-17T08:10:56;101781.31;;;11.09;80.93
13068;BME280;6600;51.362;6.686;2024-03-17T08:13:21;101783.47;;;11.21;80.93
13068;BME280;6600;51.362;6.686;2024-03-17T08:15:55;101794.81;;;11.44;80.25
13068;BME280;6600;51.362;6.686;2024-03-17T08:18:21;101787.03;;;11.55;79.01
13068;BME280;6600;51.362;6.686;2024-03-17T08:20:47;101792.16;;;11.72;78.80
13068;BME280;6600;51.362;6.686;2024-03-17T08:23:12;101784.09;;;12.06;77.61
13068;BME280;6600;51.362;6.686;2024-03-17T08:25:38;101793.72;;;11.66;77.41
13068;BME280;6600;51.362;6.686;2024-03-17T08:28:03;101789.06;;;11.75;77.52
13068;BME280;6600;51.362;6.686;2024-03-17T08:30:29;101788.47;;;11.79;76.90
13068;BME280;6600;51.362;6.686;2024-03-17T08:32:56;101790.03;;;11.67;77.34
13068;BME280;6600;51.362;6.686;2024-03-17T08:35:21;101784.81;;;11.87;77.02
13068;BME280;6600;51.362;6.686;2024-03-17T08:37:46;101788.09;;;12.23;76.28
13068;BME280;6600;51.362;6.686;2024-03-17T08:40:12;101785.88;;;12.33;75.94
13068;BME280;6600;51.362;6.686;2024-03-17T08:42:39;101778.09;;;12.10;75.27
13068;BME280;6600;51.362;6.686;2024-03-17T08:45:04;101778.38;;;12.22;75.30
13068;BME280;6600;51.362;6.686;2024-03-17T08:47:30;101777.88;;;12.05;76.31
13068;BME280;6600;51.362;6.686;2024-03-17T08:49:55;101764.63;;;12.04;76.95
13068;BME280;6600;51.362;6.686;2024-03-17T08:52:21;101761.84;;;12.25;76.16
13068;BME280;6600;51.362;6.686;2024-03-17T08:54:49;101764.69;;;12.17;76.67
13068;BME280;6600;51.362;6.686;2024-03-17T08:57:16;101773.41;;;12.19;77.13
13068;BME280;6600;51.362;6.686;2024-03-17T08:59:42;101779.63;;;12.26;76.87
13068;BME280;6600;51.362;6.686;2024-03-17T09:02:11;101774.06;;;12.34;76.89
13068;BME280;6600;51.362;6.686;2024-03-17T09:04:38;101770.56;;;12.34;77.27
13068;BME280;6600;51.362;6.686;2024-03-17T09:07:03;101763.06;;;12.16;77.58
13068;BME280;6600;51.362;6.686;2024-03-17T09:09:29;101761.41;;;12.15;77.09
13068;BME280;6600;51.362;6.686;2024-03-17T09:11:54;101757.28;;;12.19;77.04
13068;BME280;6600;51.362;6.686;2024-03-17T09:14:20;101764.63;;;11.97;77.73
13068;BME280;6600;51.362;6.686;2024-03-17T09:16:47;101767.56;;;12.09;77.43
13068;BME280;6600;51.362;6.686;2024-03-17T09:19:12;101758.50;;;12.10;76.87
13068;BME280;6600;51.362;6.686;2024-03-17T09:21:37;101754.63;;;12.26;77.74
13068;BME280;6600;51.362;6.686;2024-03-17T09:24:08;101747.44;;;12.39;77.42
13068;BME280;6600;51.362;6.686;2024-03-17T09:26:33;101747.03;;;12.55;77.62
13068;BME280;6600;51.362;6.686;2024-03-17T09:29:04;101737.56;;;12.73;76.60
13068;BME280;6600;51.362;6.686;2024-03-17T09:31:30;101731.56;;;12.57;75.56
13068;BME280;6600;51.362;6.686;2024-03-17T09:33:56;101738.78;;;12.50;75.82
13068;BME280;6600;51.362;6.686;2024-03-17T09:36:21;101741.91;;;12.67;75.20
13068;BME280;6600;51.362;6.686;2024-03-17T09:38:46;101749.16;;;12.73;75.79
13068;BME280;6600;51.362;6.686;2024-03-17T09:41:28;101758.06;;;13.00;75.28
13068;BME280;6600;51.362;6.686;2024-03-17T09:43:55;101761.19;;;12.90;75.93
13068;BME280;6600;51.362;6.686;2024-03-17T09:46:25;101760.75;;;13.00;75.64
13068;BME280;6600;51.362;6.686;2024-03-17T09:48:51;101757.47;;;12.98;76.20
13068;BME280;6600;51.362;6.686;2024-03-17T09:51:24;101760.41;;;13.16;75.01
13068;BME280;6600;51.362;6.686;2024-03-17T09:53:51;101756.66;;;13.17;75.28
13068;BME280;6600;51.362;6.686;2024-03-17T09:56:20;101754.59;;;13.06;74.60
13068;BME280;6600;51.362;6.686;2024-03-17T09:58:46;101752.13;;;13.18;74.26
13068;BME280;6600;51.362;6.686;2024-03-17T10:01:12;101753.38;;;13.15;73.30
13068;BME280;6600;51.362;6.686;2024-03-17T10:06:29;101757.09;;;13.40;74.12
13068;BME280;6600;51.362;6.686;2024-03-17T10:08:56;101760.00;;;13.19;75.16
13068;BME280;6600;51.362;6.686;2024-03-17T10:11:32;101754.97;;;13.55;74.11
13068;BME280;6600;51.362;6.686;2024-03-17T10:14:03;101752.94;;;13.44;74.35
13068;BME280;6600;51.362;6.686;2024-03-17T10:16:30;101752.94;;;13.44;73.63
13068;BME280;6600;51.362;6.686;2024-03-17T10:21:32;101770.31;;;13.61;73.90
13068;BME280;6600;51.362;6.686;2024-03-17T10:24:19;101772.34;;;13.79;74.89
13068;BME280;6600;51.362;6.686;2024-03-17T10:26:47;101767.63;;;13.61;73.67
13068;BME280;6600;51.362;6.686;2024-03-17T10:31:44;101759.16;;;13.51;74.79
13068;BME280;6600;51.362;6.686;2024-03-17T10:34:14;101745.41;;;13.86;72.96
13068;BME280;6600;51.362;6.686;2024-03-17T10:36:40;101756.56;;;13.83;72.79
13068;BME280;6600;51.362;6.686;2024-03-17T10:39:23;101740.78;;;13.99;73.28
13068;BME280;6600;51.362;6.686;2024-03-17T10:41:57;101746.16;;;14.06;73.80
13068;BME280;6600;51.362;6.686;2024-03-17T10:44:29;101747.41;;;13.97;72.97
13068;BME280;6600;51.362;6.686;2024-03-17T10:46:56;101745.25;;;14.18;73.59
13068;BME280;6600;51.362;6.686;2024-03-17T10:49:25;101743.97;;;14.34;73.12
13068;BME280;6600;51.362;6.686;2024-03-17T10:51:57;101743.75;;;14.29;74.28
13068;BME280;6600;51.362;6.686;2024-03-17T10:54:26;101751.94;;;14.60;72.28
13068;BME280;6600;51.362;6.686;2024-03-17T10:56:55;101746.09;;;14.63;72.19
13068;BME280;6600;51.362;6.686;2024-03-17T10:59:28;101747.97;;;14.63;71.92
13068;BME280;6600;51.362;6.686;2024-03-17T11:01:59;101741.25;;;14.72;71.23
13068;BME280;6600;51.362;6.686;2024-03-17T11:04:26;101744.09;;;14.84;70.74
13068;BME280;6600;51.362;6.686;2024-03-17T11:06:52;101739.13;;;14.81;69.66
13068;BME280;6600;51.362;6.686;2024-03-17T11:09:19;101736.97;;;14.96;69.97
13068;BME280;6600;51.362;6.686;2024-03-17T11:11:45;101739.91;;;14.88;69.47
13068;BME280;6600;51.362;6.686;2024-03-17T11:14:17;101737.38;;;15.17;70.99
13068;BME280;6600;51.362;6.686;2024-03-17T11:16:44;101742.19;;;15.15;69.62
13068;BME280;6600;51.362;6.686;2024-03-17T11:19:15;101733.38;;;15.51;69.98
13068;BME280;6600;51.362;6.686;2024-03-17T11:21:41;101738.69;;;15.76;69.50
13068;BME280;6600;51.362;6.686;2024-03-17T11:24:18;101742.84;;;15.60;69.42
13068;BME280;6600;51.362;6.686;2024-03-17T11:26:44;101731.75;;;15.69;69.05
13068;BME280;6600;51.362;6.686;2024-03-17T11:29:26;101732.94;;;15.91;68.19
13068;BME280;6600;51.362;6.686;2024-03-17T11:31:51;101731.59;;;15.82;67.48
13068;BME280;6600;51.362;6.686;2024-03-17T11:34:33;101732.34;;;15.89;66.57
13068;BME280;6600;51.362;6.686;2024-03-17T11:37:00;101731.38;;;15.65;67.97
13068;BME280;6600;51.362;6.686;2024-03-17T11:39:51;101735.13;;;15.82;68.08
13068;BME280;6600;51.362;6.686;2024-03-17T11:42:27;101730.53;;;16.01;67.24
13068;BME280;6600;51.362;6.686;2024-03-17T11:45:00;101725.13;;;16.01;66.28
13068;BME280;6600;51.362;6.686;2024-03-17T11:47:36;101717.25;;;15.81;66.31
13068;BME280;6600;51.362;6.686;2024-03-17T11:50:04;101715.38;;;15.82;66.65
13068;BME280;6600;51.362;6.686;2024-03-17T11:52:30;101711.47;;;15.59;66.16
13068;BME280;6600;51.362;6.686;2024-03-17T11:54:55;101720.84;;;15.75;67.15
13068;BME280;6600;51.362;6.686;2024-03-17T11:57:23;101719.78;;;15.94;66.56
13068;BME280;6600;51.362;6.686;2024-03-17T11:59:49;101716.09;;;16.07;66.47
13068;BME280;6600;51.362;6.686;2024-03-17T12:04:40;101698.19;;;16.24;65.37
13068;BME280;6600;51.362;6.686;2024-03-17T12:07:11;101698.06;;;16.19;65.27
13068;BME280;6600;51.362;6.686;2024-03-17T12:09:38;101690.22;;;16.29;64.74
13068;BME280;6600;51.362;6.686;2024-03-17T12:12:05;101693.69;;;16.18;65.83
13068;BME280;6600;51.362;6.686;2024-03-17T12:14:34;101681.69;;;16.14;65.10
13068;BME280;6600;51.362;6.686;2024-03-17T12:17:04;101686.19;;;16.20;65.01
13068;BME280;6600;51.362;6.686;2024-03-17T12:19:30;101685.19;;;16.03;66.13
13068;BME280;6600;51.362;6.686;2024-03-17T12:21:57;101677.94;;;16.15;67.51
13068;BME280;6600;51.362;6.686;2024-03-17T12:24:25;101688.56;;;16.28;66.14
13068;BME280;6600;51.362;6.686;2024-03-17T12:26:52;101679.44;;;16.41;65.42
13068;BME280;6600;51.362;6.686;2024-03-17T12:29:31;101669.13;;;16.49;66.65
13068;BME280;6600;51.362;6.686;2024-03-17T12:31:59;101668.16;;;16.14;67.32
13068;BME280;6600;51.362;6.686;2024-03-17T12:34:29;101665.16;;;16.22;66.27
13068;BME280;6600;51.362;6.686;2024-03-17T12:36:56;101661.19;;;16.36;66.50
13068;BME280;6600;51.362;6.686;2024-03-17T12:39:27;101659.44;;;16.30;66.06
13068;BME280;6600;51.362;6.686;2024-03-17T12:44:51;101651.22;;;16.48;65.69
13068;BME280;6600;51.362;6.686;2024-03-17T12:47:21;101648.81;;;16.58;65.71
13068;BME280;6600;51.362;6.686;2024-03-17T12:49:57;101644.91;;;16.54;67.07
13068;BME280;6600;51.362;6.686;2024-03-17T12:52:30;101639.09;;;16.39;67.32
13068;BME280;6600;51.362;6.686;2024-03-17T12:55:09;101641.00;;;16.50;66.65
13068;BME280;6600;51.362;6.686;2024-03-17T13:00:47;101630.88;;;16.46;65.00
13068;BME280;6600;51.362;6.686;2024-03-17T13:03:24;101626.66;;;16.50;66.25
13068;BME280;6600;51.362;6.686;2024-03-17T13:05:50;101616.94;;;16.60;66.28
13068;BME280;6600;51.362;6.686;2024-03-17T13:08:15;101609.28;;;16.57;64.26
13068;BME280;6600;51.362;6.686;2024-03-17T13:10:41;101614.47;;;16.71;65.14
13068;BME280;6600;51.362;6.686;2024-03-17T13:13:08;101610.59;;;16.66;64.31
13068;BME280;6600;51.362;6.686;2024-03-17T13:15:35;101599.28;;;16.93;64.47
13068;BME280;6600;51.362;6.686;2024-03-17T13:18:04;101597.66;;;16.92;63.78
13068;BME280;6600;51.362;6.686;2024-03-17T13:20:34;101592.72;;;16.89;nan